Time;durP1;ratioP1;P1;durP2;ratioP2;P2;SDS_P1;SDS_P2;PMS_P1;PMS_P2;Temp;Humidity;BMP_temperature;BMP_pressure;BME280_temperature;BME280_humidity;BME280_pressure;Samples;Min_cycle;Max_cycle;Signal;HPM_P1;HPM_P2
2023/08/30 00:01:26;;;;;;;2.30;2.10;;;14.70;99.90;;;;;;9686510;23;20164;-90
2023/08/30 00:05:11;;;;;;;3.90;3.07;;;14.80;99.90;;;;;;9682802;23;20185;-89
2023/08/30 00:08:58;;;;;;;3.93;2.80;;;14.80;99.90;;;;;;9689761;23;20207;-90
2023/08/30 00:12:43;;;;;;;2.17;1.90;;;14.80;99.90;;;;;;9690376;23;20158;-89
2023/08/30 00:16:29;;;;;;;3.07;2.07;;;14.80;99.90;;;;;;9688531;23;20197;-89
2023/08/30 00:20:15;;;;;;;3.60;1.83;;;14.80;99.90;;;;;;9689452;23;20153;-90
2023/08/30 00:24:00;;;;;;;3.25;2.38;;;14.90;99.90;;;;;;9689947;23;20280;-91
2023/08/30 00:27:46;;;;;;;2.70;2.40;;;14.90;99.90;;;;;;9688738;23;20162;-88
2023/08/30 00:31:32;;;;;;;4.17;2.10;;;14.80;99.90;;;;;;9688947;23;20165;-90
2023/08/30 00:35:17;;;;;;;2.78;1.85;;;14.80;99.90;;;;;;9688560;23;20259;-90
2023/08/30 00:39:03;;;;;;;3.63;2.50;;;14.80;99.90;;;;;;9688961;23;20158;-90
2023/08/30 00:42:49;;;;;;;2.85;1.98;;;14.90;99.90;;;;;;9689122;23;20230;-90
2023/08/30 00:46:35;;;;;;;2.03;1.83;;;14.90;99.90;;;;;;9689119;23;20189;-90
2023/08/30 00:50:21;;;;;;;2.30;1.80;;;15.00;99.90;;;;;;9689660;23;20496;-90
2023/08/30 00:54:08;;;;;;;1.75;1.65;;;15.10;99.90;;;;;;9687965;23;20700;-90
2023/08/30 00:57:53;;;;;;;2.50;1.88;;;15.10;99.90;;;;;;9688848;23;20240;-90
2023/08/30 01:01:41;;;;;;;2.03;1.83;;;15.00;99.90;;;;;;9688951;23;20150;-90
2023/08/30 01:05:27;;;;;;;2.25;2.05;;;15.00;99.90;;;;;;9688090;23;20217;-89
2023/08/30 01:09:13;;;;;;;3.58;3.15;;;15.00;99.90;;;;;;9688398;23;20797;-90
2023/08/30 01:13:08;;;;;;;4.20;3.17;;;15.00;99.90;;;;;;9688647;23;20489;-89
2023/08/30 01:16:57;;;;;;;3.60;3.08;;;14.90;99.90;;;;;;9687194;23;20768;-89
2023/08/30 01:20:46;;;;;;;3.10;2.80;;;14.90;99.90;;;;;;9688894;23;20223;-91
2023/08/30 01:24:48;;;;;;;2.20;2.00;;;14.80;99.90;;;;;;9688386;23;20181;-90
2023/08/30 01:28:37;;;;;;;2.25;2.05;;;14.80;99.90;;;;;;9688851;23;20152;-91
2023/08/30 01:32:25;;;;;;;3.70;3.40;;;14.80;99.90;;;;;;9689159;23;20236;-90
2023/08/30 01:36:12;;;;;;;4.30;2.83;;;14.70;99.90;;;;;;9687543;23;20200;-91
2023/08/30 01:39:58;;;;;;;2.83;2.28;;;14.60;99.90;;;;;;9686137;23;20665;-90
2023/08/30 01:43:44;;;;;;;4.20;2.50;;;14.70;99.90;;;;;;9689193;23;20164;-91
2023/08/30 01:47:31;;;;;;;3.50;2.38;;;14.80;99.90;;;;;;9686886;23;20164;-91
2023/08/30 01:51:17;;;;;;;3.40;3.10;;;14.80;99.90;;;;;;9688516;23;20157;-89
2023/08/30 01:55:04;;;;;;;3.50;2.50;;;14.80;99.90;;;;;;9687678;23;20243;-91
2023/08/30 01:58:50;;;;;;;2.00;1.70;;;14.80;99.90;;;;;;9687408;23;20181;-91
2023/08/30 02:02:36;;;;;;;2.43;2.10;;;14.80;99.90;;;;;;9689110;23;20157;-91
2023/08/30 02:06:26;;;;;;;3.28;2.05;;;14.90;99.90;;;;;;9689192;23;20181;-90
2023/08/30 02:10:17;;;;;;;2.42;1.90;;;14.90;99.90;;;;;;9690166;23;20578;-90
2023/08/30 02:14:09;;;;;;;2.22;1.90;;;14.90;99.90;;;;;;9687597;23;20721;-91
2023/08/30 02:17:57;;;;;;;2.53;1.90;;;14.80;99.90;;;;;;9687327;23;20158;-91
2023/08/30 02:21:43;;;;;;;2.70;2.25;;;14.80;99.90;;;;;;9687773;23;20601;-91
2023/08/30 02:25:29;;;;;;;2.20;2.00;;;14.80;99.90;;;;;;9688184;23;20184;-91
2023/08/30 02:29:15;;;;;;;2.33;2.13;;;14.90;99.90;;;;;;9685965;23;20189;-91
2023/08/30 02:33:00;;;;;;;2.22;2.03;;;14.90;99.90;;;;;;9687457;23;20157;-90
2023/08/30 02:36:46;;;;;;;4.47;3.08;;;14.90;99.90;;;;;;9686347;23;20177;-91
2023/08/30 02:40:32;;;;;;;3.22;2.92;;;15.00;99.90;;;;;;9685726;23;20161;-91
2023/08/30 02:44:17;;;;;;;2.88;2.67;;;15.00;99.90;;;;;;9687737;23;20567;-91
2023/08/30 02:48:03;;;;;;;4.50;3.70;;;15.00;99.90;;;;;;9687087;23;20589;-90
2023/08/30 02:51:49;;;;;;;3.97;3.60;;;14.90;99.90;;;;;;9687226;23;20157;-90
2023/08/30 02:55:35;;;;;;;4.53;3.93;;;14.90;99.90;;;;;;9686483;23;20188;-90
2023/08/30 02:59:21;;;;;;;4.22;3.83;;;14.90;99.90;;;;;;9686091;23;20153;-90
2023/08/30 03:03:07;;;;;;;3.00;2.70;;;14.90;99.90;;;;;;9687233;23;20153;-91
2023/08/30 03:14:36;;;;;;;4.40;4.00;;;14.70;99.90;;;;;;9688178;23;20272;-87
2023/08/30 08:49:31;;;;;;;13.68;8.70;;;15.50;99.90;;;;;;9640942;23;20172;-90
2023/08/30 08:53:16;;;;;;;12.45;8.45;;;15.60;99.90;;;;;;9642249;23;20669;-89
2023/08/30 08:57:02;;;;;;;10.40;7.57;;;15.70;99.90;;;;;;9640896;23;20668;-89
2023/08/30 09:00:48;;;;;;;7.45;6.28;;;15.80;99.90;;;;;;9641895;23;20161;-91
2023/08/30 09:04:34;;;;;;;8.90;7.32;;;15.90;99.90;;;;;;9643147;23;20213;-91
2023/08/30 09:16:13;;;;;;;6.57;5.40;;;16.20;99.90;;;;;;9655676;23;20293;-88
2023/08/30 09:20:09;;;;;;;10.63;6.63;;;16.30;99.90;;;;;;9660808;23;20169;-90
2023/08/30 09:24:03;;;;;;;11.45;7.50;;;16.30;99.90;;;;;;9662854;23;20153;-91
2023/08/30 09:27:49;;;;;;;11.45;4.85;;;16.30;99.90;;;;;;9661973;23;20177;-90
2023/08/30 09:31:36;;;;;;;6.72;5.40;;;16.30;99.90;;;;;;9662445;23;20157;-90
2023/08/30 09:35:22;;;;;;;10.18;5.43;;;16.30;99.90;;;;;;9661132;22;20193;-90
2023/08/30 09:39:12;;;;;;;7.93;5.22;;;16.40;99.90;;;;;;9661315;23;20160;-88
2023/08/30 09:42:58;;;;;;;6.00;4.40;;;16.40;99.90;;;;;;9661620;23;20157;-90
2023/08/30 09:46:54;;;;;;;5.00;3.95;;;16.40;99.90;;;;;;9660696;23;20710;-90
2023/08/30 09:50:41;;;;;;;6.20;4.03;;;16.50;99.90;;;;;;9661818;23;20493;-90
2023/08/30 09:54:28;;;;;;;6.40;4.57;;;16.60;99.90;;;;;;9688188;23;20170;-89
2023/08/30 09:58:15;;;;;;;5.70;3.22;;;16.80;99.90;;;;;;9660035;23;20180;-91
2023/08/30 10:02:01;;;;;;;4.28;3.88;;;16.80;99.90;;;;;;9661614;23;20605;-90
2023/08/30 10:05:47;;;;;;;4.40;3.75;;;16.80;99.90;;;;;;9687939;22;20708;-91
2023/08/30 10:09:33;;;;;;;4.60;3.78;;;16.80;99.90;;;;;;9660448;23;20193;-90
2023/08/30 10:13:20;;;;;;;6.93;3.92;;;16.80;99.90;;;;;;9661367;23;20543;-89
2023/08/30 10:17:09;;;;;;;5.22;4.10;;;16.80;99.90;;;;;;9660401;23;20193;-91
2023/08/30 10:20:56;;;;;;;5.68;3.90;;;16.90;99.90;;;;;;9661425;23;20503;-91
2023/08/30 10:25:04;;;;;;;5.78;3.50;;;17.00;99.90;;;;;;9661800;23;20749;-91
2023/08/30 10:28:51;;;;;;;4.82;3.13;;;17.00;99.90;;;;;;9689390;23;20192;-91
2023/08/30 10:32:44;;;;;;;4.97;3.13;;;17.00;99.90;;;;;;9687937;23;20161;-90
2023/08/30 10:36:30;;;;;;;4.00;2.90;;;17.10;99.90;;;;;;9659897;22;20200;-89
2023/08/30 10:40:18;;;;;;;3.90;3.30;;;17.10;99.90;;;;;;9687678;23;20169;-88
2023/08/30 10:44:04;;;;;;;5.93;3.10;;;17.20;99.90;;;;;;9660570;23;20161;-91
2023/08/30 10:47:55;;;;;;;10.30;3.13;;;17.20;99.90;;;;;;9660204;23;20212;-90
2023/08/30 10:51:41;;;;;;;5.25;2.63;;;17.20;99.90;;;;;;9660011;23;20659;-90
2023/08/30 10:55:26;;;;;;;9.68;2.80;;;17.20;99.90;;;;;;9685452;22;20244;-90
2023/08/30 10:59:20;;;;;;;4.20;2.75;;;17.20;99.90;;;;;;9658606;23;20158;-88
2023/08/30 11:03:10;;;;;;;3.53;3.20;;;17.20;99.90;;;;;;9660538;23;20604;-89
2023/08/30 11:06:56;;;;;;;4.28;2.25;;;17.20;99.90;;;;;;9659810;23;20181;-90
2023/08/30 11:10:42;;;;;;;3.28;2.58;;;17.20;99.90;;;;;;9660447;23;20169;-91
2023/08/30 11:14:28;;;;;;;5.03;2.80;;;17.40;99.90;;;;;;9659578;23;20207;-89
2023/08/30 11:18:19;;;;;;;3.38;3.05;;;17.40;99.90;;;;;;9660143;23;20178;-91
2023/08/30 11:22:05;;;;;;;4.22;3.22;;;17.50;99.90;;;;;;9660552;23;20225;-89
2023/08/30 11:25:51;;;;;;;3.42;2.70;;;17.50;99.90;;;;;;9686945;22;20170;-88
2023/08/30 11:29:40;;;;;;;5.60;3.40;;;17.60;99.90;;;;;;9659244;23;20828;-90
2023/08/30 11:33:25;;;;;;;8.70;3.65;;;17.60;99.90;;;;;;9658872;23;20165;-89
2023/08/30 11:37:12;;;;;;;4.00;2.95;;;17.60;99.90;;;;;;9658060;23;20193;-87
2023/08/30 11:40:57;;;;;;;4.18;2.95;;;17.60;99.90;;;;;;9659734;23;20153;-89
2023/08/30 11:44:44;;;;;;;3.50;3.20;;;17.60;99.90;;;;;;9660277;23;20168;-89
2023/08/30 11:48:30;;;;;;;6.72;3.22;;;17.80;99.90;;;;;;9659099;23;20185;-90
2023/08/30 11:52:17;;;;;;;4.88;3.30;;;17.90;99.90;;;;;;9659197;23;20164;-90
2023/08/30 11:56:03;;;;;;;3.85;3.08;;;18.00;99.90;;;;;;9686289;22;20192;-90
2023/08/30 11:59:50;;;;;;;4.57;3.45;;;18.10;99.90;;;;;;9659429;23;20157;-91
2023/08/30 12:03:36;;;;;;;7.20;2.83;;;18.20;99.90;;;;;;9662923;23;20208;-91
2023/08/30 12:07:23;;;;;;;4.53;2.72;;;18.20;99.90;;;;;;9689666;22;20169;-89
2023/08/30 12:11:21;;;;;;;4.95;2.80;;;18.30;99.90;;;;;;9663318;23;20180;-89
2023/08/30 12:15:10;;;;;;;4.40;2.67;;;18.40;99.90;;;;;;9664879;22;20199;-89
2023/08/30 12:19:06;;;;;;;2.50;2.30;;;18.40;99.90;;;;;;9663053;23;20677;-89
2023/08/30 12:22:53;;;;;;;2.85;2.17;;;18.60;99.90;;;;;;9663247;23;20160;-86
2023/08/30 12:26:38;;;;;;;2.50;1.92;;;18.60;99.90;;;;;;9662025;23;20181;-87
2023/08/30 12:30:24;;;;;;;4.60;2.47;;;18.70;99.90;;;;;;9662866;23;20244;-89
2023/08/30 12:34:10;;;;;;;4.10;2.30;;;18.70;99.90;;;;;;9662130;23;20165;-90
2023/08/30 12:37:55;;;;;;;2.60;2.38;;;18.80;99.90;;;;;;9689569;22;20166;-90
2023/08/30 12:41:42;;;;;;;6.75;2.00;;;18.80;99.90;;;;;;9690267;23;20187;-89
2023/08/30 12:45:28;;;;;;;3.15;2.20;;;18.80;99.90;;;;;;9662499;22;20181;-88
2023/08/30 12:49:13;;;;;;;2.50;1.92;;;18.80;99.90;;;;;;9660544;23;20608;-89
2023/08/30 12:52:59;;;;;;;5.70;2.40;;;18.90;99.90;;;;;;9661932;23;20167;-88
2023/08/30 12:56:45;;;;;;;2.75;2.17;;;19.00;99.90;;;;;;9659097;23;20201;-89
2023/08/30 13:00:30;;;;;;;5.00;2.35;;;19.00;99.90;;;;;;9661886;23;20602;-88
2023/08/30 13:04:16;;;;;;;4.35;1.80;;;19.00;99.90;;;;;;9661787;23;20158;-89
2023/08/30 13:08:02;;;;;;;2.63;2.13;;;19.10;99.90;;;;;;9662239;23;20649;-89
2023/08/30 13:11:48;;;;;;;5.22;1.90;;;19.20;99.90;;;;;;9661148;23;20161;-89
2023/08/30 13:15:35;;;;;;;2.22;1.92;;;19.20;99.90;;;;;;9660711;22;20280;-88
2023/08/30 13:19:21;;;;;;;5.57;2.33;;;19.40;99.90;;;;;;9661237;23;20176;-89
2023/08/30 13:23:07;;;;;;;3.30;1.50;;;19.40;99.90;;;;;;9661895;23;20192;-87
2023/08/30 13:26:53;;;;;;;1.90;1.70;;;19.40;99.90;;;;;;9660513;23;20172;-90
2023/08/30 13:30:49;;;;;;;4.90;2.40;;;19.30;99.90;;;;;;9660673;23;20824;-89
2023/08/30 13:34:36;;;;;;;3.20;1.90;;;19.30;99.90;;;;;;9661489;23;20180;-88
2023/08/30 13:38:25;;;;;;;2.60;1.92;;;19.20;99.90;;;;;;9658499;23;20699;-88
2023/08/30 13:42:16;;;;;;;2.35;2.08;;;19.10;99.90;;;;;;9661184;23;20157;-89
2023/08/30 13:46:02;;;;;;;2.15;1.77;;;19.20;99.90;;;;;;9657779;22;20184;-89
2023/08/30 13:49:48;;;;;;;2.08;1.80;;;19.30;99.90;;;;;;9660736;23;20161;-88
2023/08/30 13:53:34;;;;;;;2.15;1.95;;;19.50;99.90;;;;;;9660025;23;20211;-89
2023/08/30 13:57:23;;;;;;;3.00;2.05;;;19.60;99.90;;;;;;9656283;23;20536;-87
2023/08/30 14:01:09;;;;;;;1.80;1.65;;;19.70;99.90;;;;;;9659838;23;20157;-90
2023/08/30 14:04:55;;;;;;;2.40;1.90;;;19.80;99.90;;;;;;9661195;22;20154;-90
2023/08/30 14:08:42;;;;;;;1.70;1.60;;;19.90;99.90;;;;;;9661334;23;20161;-90
2023/08/30 14:12:28;;;;;;;40.05;6.55;;;19.90;99.90;;;;;;9687529;23;20162;-89
2023/08/30 14:16:14;;;;;;;48.28;7.57;;;19.90;99.90;;;;;;9661090;22;20196;-90
2023/08/30 14:20:00;;;;;;;12.02;4.25;;;19.90;99.90;;;;;;9660195;23;20160;-90
2023/08/30 14:23:45;;;;;;;8.88;2.17;;;19.90;99.90;;;;;;9661461;23;20145;-90
2023/08/30 14:27:31;;;;;;;4.65;1.83;;;20.00;99.90;;;;;;9666935;23;20190;-88
2023/08/30 14:31:17;;;;;;;2.33;1.80;;;20.00;99.90;;;;;;9671225;23;20218;-87
2023/08/30 14:35:03;;;;;;;5.03;1.73;;;20.00;99.90;;;;;;9688768;22;20170;-88
2023/08/30 14:38:49;;;;;;;2.53;1.55;;;20.00;99.90;;;;;;9686469;23;20177;-88
2023/08/30 14:42:35;;;;;;;19.10;3.38;;;20.00;99.90;;;;;;9659910;23;20167;-87
2023/08/30 14:46:21;;;;;;;6.93;2.10;;;20.10;99.90;;;;;;9659728;22;20181;-89
2023/08/30 14:50:07;;;;;;;28.65;9.63;;;20.10;99.90;;;;;;9659936;23;20511;-89
2023/08/30 14:53:53;;;;;;;16.00;3.30;;;20.10;99.90;;;;;;9658724;23;20168;-89
2023/08/30 14:57:39;;;;;;;3.95;1.77;;;20.20;99.90;;;;;;9657131;23;20196;-89
2023/08/30 15:01:24;;;;;;;27.02;3.70;;;20.20;99.90;;;;;;9658558;23;20246;-89
2023/08/30 15:05:10;;;;;;;2.30;1.67;;;20.30;99.90;;;;;;9658539;22;20162;-88
2023/08/30 15:08:56;;;;;;;7.20;2.22;;;20.30;99.90;;;;;;9659572;23;20165;-88
2023/08/30 15:12:42;;;;;;;5.82;1.92;;;20.40;99.90;;;;;;9660427;23;20196;-88
2023/08/30 15:16:27;;;;;;;4.85;1.98;;;20.40;99.90;;;;;;9659410;22;20185;-89
2023/08/30 15:20:14;;;;;;;5.93;2.10;;;20.40;99.90;;;;;;9667814;23;20161;-89
2023/08/30 15:23:59;;;;;;;7.03;2.33;;;20.30;99.90;;;;;;9666320;23;20153;-89
2023/08/30 15:27:45;;;;;;;3.92;1.80;;;20.30;99.90;;;;;;9659942;23;20181;-88
2023/08/30 15:31:31;;;;;;;4.05;1.70;;;20.30;99.90;;;;;;9662120;23;20161;-89
2023/08/30 15:35:16;;;;;;;2.15;1.58;;;20.30;99.90;;;;;;9687717;22;20177;-87
2023/08/30 15:39:02;;;;;;;1.80;1.55;;;20.30;99.90;;;;;;9661670;23;20498;-89
2023/08/30 15:42:50;;;;;;;4.13;1.58;;;20.40;99.90;;;;;;9661365;23;20295;-88
2023/08/30 15:46:35;;;;;;;2.45;1.20;;;20.40;99.90;;;;;;9662031;22;20183;-89
2023/08/30 15:50:21;;;;;;;2.25;1.58;;;20.50;99.90;;;;;;9661663;23;20593;-88
2023/08/30 15:54:07;;;;;;;2.45;1.80;;;20.50;99.90;;;;;;9661417;23;20516;-89
2023/08/30 15:57:53;;;;;;;2.17;1.40;;;20.50;99.90;;;;;;9661157;23;20609;-90
2023/08/30 16:01:38;;;;;;;2.30;1.80;;;20.50;99.90;;;;;;9661914;23;20161;-88
2023/08/30 16:05:24;;;;;;;3.03;1.92;;;20.50;99.90;;;;;;9662361;22;20204;-88
2023/08/30 16:09:14;;;;;;;1.67;1.58;;;20.60;99.90;;;;;;9663609;23;20543;-89
2023/08/30 16:13:00;;;;;;;2.40;1.63;;;20.60;99.90;;;;;;9688541;23;20707;-89
2023/08/30 16:16:45;;;;;;;1.70;1.40;;;20.50;99.90;;;;;;9688614;22;20255;-89
2023/08/30 16:20:31;;;;;;;3.30;1.60;;;20.50;99.90;;;;;;9661287;23;20153;-90
2023/08/30 16:24:17;;;;;;;1.60;1.50;;;20.50;99.90;;;;;;9661072;23;20153;-90
2023/08/30 16:28:04;;;;;;;2.25;1.38;;;20.50;99.90;;;;;;9661069;23;20509;-88
2023/08/30 16:31:51;;;;;;;1.95;1.60;;;20.40;99.90;;;;;;9660893;23;20211;-89
2023/08/30 16:35:37;;;;;;;1.58;1.48;;;20.50;99.90;;;;;;9660482;22;20277;-88
2023/08/30 16:39:24;;;;;;;2.00;1.35;;;20.50;99.90;;;;;;9661158;23;20157;-88
2023/08/30 16:43:10;;;;;;;2.28;1.67;;;20.50;99.90;;;;;;9659541;23;20604;-90
2023/08/30 16:46:56;;;;;;;2.00;1.55;;;20.50;99.90;;;;;;9659955;23;20726;-88
2023/08/30 16:50:43;;;;;;;1.88;1.70;;;20.50;99.90;;;;;;9662874;23;20165;-89
2023/08/30 16:54:29;;;;;;;1.58;1.48;;;20.50;99.90;;;;;;9662185;23;20324;-89
2023/08/30 16:58:15;;;;;;;2.85;1.60;;;20.50;99.90;;;;;;9662907;23;20177;-89
2023/08/30 17:02:00;;;;;;;1.50;1.40;;;20.40;99.90;;;;;;9689334;23;20199;-89
2023/08/30 17:05:46;;;;;;;2.17;1.30;;;20.40;99.90;;;;;;9662422;22;20184;-89
2023/08/30 17:09:35;;;;;;;2.85;1.30;;;20.40;99.90;;;;;;9662354;23;20532;-89
2023/08/30 17:13:21;;;;;;;1.55;1.45;;;20.40;99.90;;;;;;9662662;23;20173;-89
2023/08/30 17:17:08;;;;;;;2.83;1.30;;;20.40;99.90;;;;;;9661893;23;20718;-89
2023/08/30 17:20:57;;;;;;;1.60;1.30;;;20.40;99.90;;;;;;9689374;23;20134;-89
2023/08/30 17:24:43;;;;;;;3.10;1.52;;;20.40;99.90;;;;;;9581593;23;20215;-88
2023/08/30 17:28:29;;;;;;;1.55;1.25;;;20.40;99.90;;;;;;9569285;23;20337;-89
2023/08/30 17:32:15;;;;;;;1.73;1.38;;;20.30;99.90;;;;;;9568301;23;20181;-88
2023/08/30 17:36:04;;;;;;;1.73;1.40;;;20.30;99.90;;;;;;9569202;23;20187;-88
2023/08/30 17:39:50;;;;;;;3.05;2.00;;;20.30;99.90;;;;;;9567066;23;20154;-88
2023/08/30 17:43:37;;;;;;;1.48;1.38;;;20.30;99.90;;;;;;9566154;23;20618;-88
2023/08/30 17:47:22;;;;;;;2.33;1.50;;;20.30;99.90;;;;;;9562448;23;20155;-88
2023/08/30 17:51:08;;;;;;;1.45;1.35;;;20.30;99.90;;;;;;9593503;23;20193;-89
2023/08/30 17:54:56;;;;;;;1.30;1.20;;;20.20;99.90;;;;;;9566648;23;20189;-88
2023/08/30 17:58:42;;;;;;;1.83;1.40;;;20.20;99.90;;;;;;9567363;23;20542;-88
2023/08/30 18:02:27;;;;;;;1.50;1.40;;;20.20;99.90;;;;;;9567277;23;20178;-90
2023/08/30 18:06:14;;;;;;;1.70;1.60;;;20.20;99.90;;;;;;9567945;23;20221;-89
2023/08/30 18:10:00;;;;;;;1.60;1.50;;;20.10;99.90;;;;;;9566441;23;20170;-88
2023/08/30 18:13:47;;;;;;;1.83;1.48;;;20.10;99.90;;;;;;9567630;23;20179;-88
2023/08/30 18:17:35;;;;;;;1.85;1.58;;;20.10;99.90;;;;;;9591859;23;20209;-88
2023/08/30 18:21:23;;;;;;;2.70;1.60;;;20.10;99.90;;;;;;9567798;23;20155;-88
2023/08/30 18:25:09;;;;;;;1.70;1.60;;;20.00;99.90;;;;;;9565860;23;20174;-88
2023/08/30 18:28:58;;;;;;;1.60;1.50;;;20.00;99.90;;;;;;9566514;23;20759;-89
2023/08/30 18:32:45;;;;;;;1.70;1.50;;;20.00;99.90;;;;;;9566498;23;20642;-88
2023/08/30 18:36:31;;;;;;;2.25;1.88;;;19.90;99.90;;;;;;9565366;23;20174;-89
2023/08/30 18:40:18;;;;;;;2.83;1.77;;;19.90;99.90;;;;;;9563750;23;20155;-89
2023/08/30 18:44:04;;;;;;;1.98;1.88;;;19.80;99.90;;;;;;9565080;23;20208;-89
2023/08/30 18:47:50;;;;;;;1.70;1.60;;;19.80;99.90;;;;;;9567215;23;20168;-88
2023/08/30 18:51:36;;;;;;;2.08;1.88;;;19.80;99.90;;;;;;9568301;23;20147;-89
2023/08/30 18:55:21;;;;;;;2.20;1.90;;;19.70;99.90;;;;;;9592884;23;20201;-89
2023/08/30 18:59:08;;;;;;;2.80;1.42;;;19.70;99.90;;;;;;9566885;23;20151;-89
2023/08/30 19:02:57;;;;;;;1.98;1.88;;;19.60;99.90;;;;;;9565957;23;20492;-89
2023/08/30 19:06:43;;;;;;;1.63;1.42;;;19.60;99.90;;;;;;9566525;23;20643;-89
2023/08/30 19:10:30;;;;;;;2.13;1.88;;;19.60;99.90;;;;;;9567762;23;20178;-89
2023/08/30 19:14:16;;;;;;;1.90;1.80;;;19.60;99.90;;;;;;9566873;23;20214;-89
2023/08/30 19:18:02;;;;;;;2.00;1.80;;;19.60;99.90;;;;;;9592357;23;20155;-89
2023/08/30 19:21:48;;;;;;;4.88;1.85;;;19.50;99.90;;;;;;9566854;23;20190;-89
2023/08/30 19:25:37;;;;;;;3.05;2.08;;;19.40;99.90;;;;;;9567673;23;20150;-89
2023/08/30 19:29:22;;;;;;;1.80;1.70;;;19.40;99.90;;;;;;9567545;23;20169;-89
2023/08/30 19:33:08;;;;;;;1.90;1.80;;;19.30;99.90;;;;;;9567366;23;20186;-88
2023/08/30 19:36:57;;;;;;;3.22;1.92;;;19.30;99.90;;;;;;9566791;23;20193;-88
2023/08/30 19:40:51;;;;;;;2.63;1.83;;;19.20;99.90;;;;;;9568223;23;20158;-89
2023/08/30 19:44:39;;;;;;;2.25;1.92;;;19.20;99.90;;;;;;9567323;23;20192;-89
2023/08/30 19:48:25;;;;;;;2.17;1.88;;;19.20;99.90;;;;;;9568325;23;20150;-90
2023/08/30 19:52:15;;;;;;;2.00;1.90;;;19.20;99.90;;;;;;9568071;23;20606;-89
2023/08/30 19:56:03;;;;;;;3.60;1.90;;;19.20;99.90;;;;;;9567819;23;20257;-90
2023/08/30 19:59:48;;;;;;;3.40;2.38;;;19.20;99.90;;;;;;9567712;23;20805;-89
2023/08/30 20:03:34;;;;;;;5.38;2.30;;;19.00;99.90;;;;;;9567562;23;20499;-90
2023/08/30 20:07:22;;;;;;;2.67;2.47;;;19.00;99.90;;;;;;9591522;23;20153;-89
2023/08/30 20:11:08;;;;;;;2.97;2.25;;;18.90;99.90;;;;;;9566481;23;20526;-90
2023/08/30 20:15:03;;;;;;;5.22;2.17;;;18.80;99.90;;;;;;9565953;23;20194;-89
2023/08/30 20:18:49;;;;;;;3.85;2.10;;;18.80;99.90;;;;;;9564052;23;20146;-89
2023/08/30 20:22:40;;;;;;;2.45;1.98;;;18.80;99.90;;;;;;9565814;23;20224;-90
2023/08/30 20:26:26;;;;;;;2.55;2.00;;;18.70;99.90;;;;;;9568321;23;20151;-90
2023/08/30 20:30:13;;;;;;;2.22;2.03;;;18.70;99.90;;;;;;9567475;23;20161;-88
2023/08/30 20:34:00;;;;;;;2.60;2.22;;;18.60;99.90;;;;;;9595026;23;20167;-90
2023/08/30 20:37:46;;;;;;;2.47;2.20;;;18.50;99.90;;;;;;9568839;23;20178;-89
2023/08/30 20:41:33;;;;;;;4.55;2.10;;;18.40;99.90;;;;;;9569798;23;20166;-89
2023/08/30 20:45:18;;;;;;;3.10;1.92;;;18.30;99.90;;;;;;9569797;23;20151;-90
2023/08/30 20:49:16;;;;;;;3.33;1.73;;;18.30;99.90;;;;;;9569086;23;20231;-90
2023/08/30 20:53:04;;;;;;;2.67;1.83;;;18.30;99.90;;;;;;9569088;23;20527;-90
2023/08/30 20:57:03;;;;;;;2.08;1.88;;;18.20;99.90;;;;;;9569316;23;20237;-90
2023/08/30 21:00:56;;;;;;;2.17;1.83;;;18.10;99.90;;;;;;9568639;23;20209;-89
2023/08/30 21:04:45;;;;;;;2.22;2.03;;;18.10;99.90;;;;;;9568149;23;20650;-90
2023/08/30 21:08:38;;;;;;;3.70;1.85;;;18.00;99.90;;;;;;9569302;23;20249;-90
2023/08/30 21:12:24;;;;;;;3.17;1.73;;;18.10;99.90;;;;;;9568235;23;20196;-90
2023/08/30 21:16:10;;;;;;;3.22;2.00;;;18.00;99.90;;;;;;9574165;23;20191;-89
2023/08/30 21:19:55;;;;;;;1.92;1.75;;;18.00;99.90;;;;;;9566452;23;20166;-90
2023/08/30 21:23:41;;;;;;;2.17;1.55;;;18.10;99.90;;;;;;9565625;23;20285;-90
2023/08/30 21:27:27;;;;;;;3.17;1.85;;;18.00;99.90;;;;;;9565656;23;20189;-90
2023/08/30 21:31:12;;;;;;;3.45;2.10;;;18.10;99.90;;;;;;9564759;23;20167;-89
2023/08/30 21:34:58;;;;;;;1.70;1.60;;;18.10;99.90;;;;;;9565031;23;20201;-90
2023/08/30 21:38:43;;;;;;;2.20;2.00;;;18.00;99.90;;;;;;9565453;23;20166;-90
2023/08/30 21:42:30;;;;;;;3.25;2.50;;;18.00;99.90;;;;;;9564046;23;20193;-91
2023/08/30 21:46:16;;;;;;;3.83;2.15;;;18.00;99.90;;;;;;9565105;23;20158;-90
2023/08/30 21:50:02;;;;;;;3.17;2.25;;;18.00;99.90;;;;;;9564133;23;20190;-90
2023/08/30 21:53:47;;;;;;;2.40;1.90;;;18.00;99.90;;;;;;9561615;23;20257;-89
2023/08/30 21:57:34;;;;;;;2.33;2.03;;;17.90;99.90;;;;;;9563246;23;20178;-90
2023/08/30 22:01:21;;;;;;;3.03;2.40;;;17.80;99.90;;;;;;9568241;23;20755;-89
2023/08/30 22:05:07;;;;;;;2.33;2.13;;;17.70;99.90;;;;;;9565530;23;20157;-90
2023/08/30 22:08:53;;;;;;;2.40;2.20;;;17.70;99.90;;;;;;9566939;23;20171;-90
2023/08/30 22:12:40;;;;;;;2.83;2.13;;;17.70;99.90;;;;;;9567694;23;20237;-89
2023/08/30 22:16:25;;;;;;;2.92;2.55;;;17.70;99.90;;;;;;9567935;23;20182;-89
2023/08/30 22:20:15;;;;;;;3.60;2.58;;;17.60;99.90;;;;;;9567847;23;20158;-89
2023/08/30 22:24:02;;;;;;;2.72;2.53;;;17.60;99.90;;;;;;9567329;23;20679;-90
2023/08/30 22:27:48;;;;;;;4.70;2.83;;;17.60;99.90;;;;;;9567667;23;20166;-90
2023/08/30 22:31:33;;;;;;;3.08;2.78;;;17.60;99.90;;;;;;9594066;23;20208;-89
2023/08/30 22:35:19;;;;;;;3.53;2.20;;;17.60;99.90;;;;;;9564922;23;20509;-89
2023/08/30 22:39:05;;;;;;;3.90;2.50;;;17.60;99.90;;;;;;9564619;23;20162;-89
2023/08/30 22:42:52;;;;;;;2.78;2.58;;;17.70;99.90;;;;;;9564405;23;20186;-89
2023/08/30 22:46:38;;;;;;;3.40;2.63;;;17.60;99.90;;;;;;9563645;23;20559;-89
2023/08/30 22:50:23;;;;;;;4.53;2.60;;;17.60;99.90;;;;;;9564892;23;20483;-90
2023/08/30 22:54:09;;;;;;;2.65;2.45;;;17.50;99.90;;;;;;9564220;23;20179;-89
2023/08/30 22:57:55;;;;;;;2.83;2.53;;;17.50;99.90;;;;;;9590334;23;20189;-90
2023/08/30 23:01:40;;;;;;;3.70;2.40;;;17.50;99.90;;;;;;9564545;23;20198;-90
2023/08/30 23:05:26;;;;;;;2.90;2.70;;;17.50;99.90;;;;;;9563872;23;20222;-90
2023/08/30 23:09:20;;;;;;;3.72;3.05;;;17.50;99.90;;;;;;9564333;23;20163;-90
2023/08/30 23:13:06;;;;;;;3.00;2.80;;;17.50;99.90;;;;;;9564950;23;20193;-90
2023/08/30 23:16:52;;;;;;;4.22;2.97;;;17.40;99.90;;;;;;9563722;23;20182;-90
2023/08/30 23:20:38;;;;;;;3.75;2.80;;;17.40;99.90;;;;;;9564784;23;20165;-89
2023/08/30 23:24:24;;;;;;;3.58;3.15;;;17.40;99.90;;;;;;9565368;23;20194;-90
2023/08/30 23:28:10;;;;;;;4.47;3.17;;;17.40;99.90;;;;;;9564911;23;20166;-88
2023/08/30 23:31:57;;;;;;;5.18;3.50;;;17.40;99.90;;;;;;9566161;23;20230;-90
2023/08/30 23:35:43;;;;;;;3.58;3.28;;;17.40;99.90;;;;;;9566145;23;20186;-90
2023/08/30 23:39:29;;;;;;;3.50;3.20;;;17.30;99.90;;;;;;9566109;23;20261;-89
2023/08/30 23:43:15;;;;;;;3.42;3.13;;;17.20;99.90;;;;;;9566512;23;20186;-90
2023/08/30 23:47:00;;;;;;;5.72;3.50;;;17.20;99.90;;;;;;9563546;23;20181;-90
2023/08/30 23:50:47;;;;;;;7.25;3.42;;;17.20;99.90;;;;;;9590497;23;20205;-90
2023/08/30 23:54:33;;;;;;;3.42;3.13;;;17.20;99.90;;;;;;9564323;23;20183;-90
2023/08/30 23:58:20;;;;;;;3.63;3.08;;;17.10;99.90;;;;;;9565527;23;20603;-89
